Time;durP1;ratioP1;P1;durP2;ratioP2;P2;SDS_P1;SDS_P2;PMS_P1;PMS_P2;Temp;Humidity;BMP_temperature;BMP_pressure;BME280_temperature;BME280_humidity;BME280_pressure;Samples;Min_cycle;Max_cycle;Signal;HPM_P1;HPM_P2
2021/10/20 00:00:11;;;;;;;14.80;6.93;;;13.50;97.30;;;;;;5095928;28;20405;-80
2021/10/20 00:02:37;;;;;;;13.87;7.40;;;13.50;97.30;;;;;;5095654;28;20405;-80
2021/10/20 00:05:03;;;;;;;11.30;6.30;;;13.60;97.30;;;;;;5077511;28;20442;-81
2021/10/20 00:07:28;;;;;;;13.03;6.83;;;13.70;97.30;;;;;;5077848;28;20185;-81
2021/10/20 00:09:54;;;;;;;10.83;6.57;;;13.70;97.30;;;;;;5096299;28;20405;-80
2021/10/20 00:12:21;;;;;;;12.30;7.13;;;13.70;97.30;;;;;;5077601;28;20179;-81
2021/10/20 00:14:47;;;;;;;13.07;6.90;;;13.70;97.30;;;;;;5077466;28;20190;-80
2021/10/20 00:17:13;;;;;;;14.17;6.90;;;13.70;97.30;;;;;;5077171;28;20443;-80
2021/10/20 00:19:38;;;;;;;19.30;7.80;;;13.70;97.30;;;;;;5077223;28;20611;-80
2021/10/20 00:22:04;;;;;;;13.57;7.53;;;13.60;97.30;;;;;;5076769;28;20227;-80
2021/10/20 00:24:30;;;;;;;13.50;6.90;;;13.60;97.30;;;;;;5096495;28;20194;-81
2021/10/20 00:26:55;;;;;;;12.90;7.70;;;13.60;97.30;;;;;;5077125;28;20451;-79
2021/10/20 00:29:21;;;;;;;15.43;7.33;;;13.50;97.30;;;;;;5079161;28;20287;-80
2021/10/20 00:31:46;;;;;;;13.07;6.73;;;13.50;97.30;;;;;;5078496;28;20543;-80
2021/10/20 00:34:12;;;;;;;9.40;6.30;;;13.50;97.30;;;;;;5095771;28;20239;-80
2021/10/20 00:36:37;;;;;;;15.23;6.47;;;13.60;97.30;;;;;;5078624;28;20636;-80
2021/10/20 00:39:03;;;;;;;11.13;6.10;;;13.60;97.30;;;;;;5078148;28;20636;-81
2021/10/20 00:41:29;;;;;;;11.87;6.30;;;13.60;97.30;;;;;;5095847;28;20240;-81
2021/10/20 00:43:55;;;;;;;9.33;5.80;;;13.60;97.30;;;;;;5076974;28;20680;-81
2021/10/20 00:46:26;;;;;;;9.73;5.53;;;13.60;97.30;;;;;;5076906;28;20547;-81
2021/10/20 00:48:52;;;;;;;9.57;5.50;;;13.60;97.30;;;;;;5077839;28;20690;-81
2021/10/20 00:51:18;;;;;;;10.07;5.13;;;13.50;97.30;;;;;;5076811;28;20425;-80
2021/10/20 00:53:43;;;;;;;8.53;4.70;;;13.50;97.30;;;;;;5094943;28;20210;-81
2021/10/20 00:56:09;;;;;;;10.90;5.97;;;13.50;97.30;;;;;;5076646;28;20206;-80
2021/10/20 00:58:34;;;;;;;13.57;6.70;;;13.50;97.30;;;;;;5095258;28;20190;-83
2021/10/20 01:01:00;;;;;;;7.87;5.20;;;13.50;97.30;;;;;;5075939;28;20174;-80
2021/10/20 01:03:25;;;;;;;9.47;5.67;;;13.50;97.30;;;;;;5076423;28;20483;-81
2021/10/20 01:05:51;;;;;;;9.40;5.37;;;13.50;97.30;;;;;;5095141;28;20246;-81
2021/10/20 01:08:16;;;;;;;6.90;4.97;;;13.50;97.30;;;;;;5092302;28;20177;-81
2021/10/20 01:10:42;;;;;;;9.37;5.10;;;13.50;97.30;;;;;;5097085;28;20715;-81
2021/10/20 01:13:08;;;;;;;9.17;5.00;;;13.50;97.30;;;;;;5097481;28;20654;-81
2021/10/20 01:15:33;;;;;;;13.13;5.13;;;13.50;97.30;;;;;;5096872;28;20204;-80
2021/10/20 01:17:59;;;;;;;13.17;6.40;;;13.60;97.30;;;;;;5096607;28;20540;-82
2021/10/20 01:20:34;;;;;;;10.10;5.60;;;13.60;97.30;;;;;;5097247;28;20185;-81
2021/10/20 01:23:00;;;;;;;8.67;4.87;;;13.60;97.30;;;;;;5096791;28;20211;-80
2021/10/20 01:25:26;;;;;;;10.17;6.30;;;13.60;97.30;;;;;;5096542;28;20440;-80
2021/10/20 01:27:51;;;;;;;10.30;6.13;;;13.60;97.30;;;;;;5096788;28;20427;-82
2021/10/20 01:30:17;;;;;;;11.20;5.53;;;13.60;97.30;;;;;;5074698;28;20200;-81
2021/10/20 01:32:43;;;;;;;10.30;5.67;;;13.70;97.30;;;;;;5075604;28;20186;-81
2021/10/20 01:35:09;;;;;;;7.33;5.03;;;13.70;97.30;;;;;;5093178;28;20190;-80
2021/10/20 01:37:35;;;;;;;9.07;4.80;;;13.70;97.30;;;;;;5095608;28;20167;-82
2021/10/20 01:40:01;;;;;;;9.87;5.00;;;13.70;97.30;;;;;;5079585;28;20427;-81
2021/10/20 01:42:27;;;;;;;13.73;5.00;;;13.70;97.30;;;;;;5080057;28;20412;-79
2021/10/20 01:44:54;;;;;;;7.00;4.57;;;13.80;97.30;;;;;;5098091;28;20312;-80
2021/10/20 01:47:19;;;;;;;8.43;4.93;;;13.80;97.30;;;;;;5080348;28;20467;-80
2021/10/20 01:49:45;;;;;;;9.07;4.77;;;13.80;97.30;;;;;;5081025;28;20408;-81
2021/10/20 01:52:11;;;;;;;8.30;4.90;;;13.80;97.30;;;;;;5081526;28;20266;-80
2021/10/20 01:54:36;;;;;;;8.60;4.53;;;13.80;97.30;;;;;;5081088;28;20225;-78
2021/10/20 01:57:02;;;;;;;8.63;4.47;;;13.80;97.30;;;;;;5081640;28;20186;-80
2021/10/20 01:59:27;;;;;;;6.77;4.37;;;13.80;97.30;;;;;;5100350;28;20181;-82
2021/10/20 02:01:53;;;;;;;7.20;4.40;;;13.80;97.30;;;;;;5100678;28;20178;-80
2021/10/20 02:04:19;;;;;;;7.47;4.40;;;13.80;97.30;;;;;;5081385;28;20726;-80
2021/10/20 02:06:44;;;;;;;6.73;4.40;;;13.80;97.30;;;;;;5081006;28;20206;-80
2021/10/20 02:09:11;;;;;;;6.73;4.27;;;13.80;97.30;;;;;;5080798;28;20171;-82
2021/10/20 02:11:39;;;;;;;7.47;4.37;;;13.80;97.30;;;;;;5098876;28;20170;-81
2021/10/20 02:14:06;;;;;;;7.47;4.63;;;13.80;97.30;;;;;;5078856;28;20440;-81
2021/10/20 02:16:32;;;;;;;8.27;4.50;;;13.80;97.30;;;;;;5079994;28;20789;-80
2021/10/20 02:18:58;;;;;;;8.50;4.30;;;13.80;97.30;;;;;;5097742;28;20424;-82
2021/10/20 02:21:24;;;;;;;5.90;4.20;;;13.90;97.30;;;;;;5080483;28;20655;-83
2021/10/20 02:23:50;;;;;;;6.70;4.97;;;13.80;97.30;;;;;;5097247;28;20443;-79
2021/10/20 02:26:16;;;;;;;7.57;4.03;;;13.80;97.30;;;;;;5079579;28;20225;-81
2021/10/20 02:28:42;;;;;;;5.33;4.27;;;13.80;97.30;;;;;;5079047;28;20424;-82
2021/10/20 02:31:07;;;;;;;7.73;4.40;;;13.80;97.30;;;;;;5078995;28;20421;-81
2021/10/20 02:33:33;;;;;;;8.80;4.40;;;13.80;97.30;;;;;;5078952;28;20632;-81
2021/10/20 02:35:59;;;;;;;4.97;3.80;;;13.70;97.30;;;;;;5078893;28;20599;-80
2021/10/20 02:38:25;;;;;;;6.60;3.90;;;13.70;97.30;;;;;;5078893;28;20553;-81
2021/10/20 02:40:50;;;;;;;5.67;3.80;;;13.70;97.30;;;;;;5078137;28;20178;-80
2021/10/20 02:43:17;;;;;;;6.83;3.97;;;13.70;97.30;;;;;;5078118;28;20416;-80
2021/10/20 02:45:43;;;;;;;8.50;4.37;;;13.70;97.30;;;;;;5077874;28;20202;-78
2021/10/20 02:48:09;;;;;;;6.37;4.17;;;13.70;97.30;;;;;;5077144;28;20409;-80
2021/10/20 02:50:34;;;;;;;6.30;3.93;;;13.70;97.30;;;;;;5077261;28;20417;-78
2021/10/20 02:53:00;;;;;;;5.87;3.63;;;13.70;97.30;;;;;;5077035;28;20256;-79
2021/10/20 02:55:26;;;;;;;5.17;3.43;;;13.70;97.30;;;;;;5077765;28;20202;-81
2021/10/20 02:57:52;;;;;;;7.97;3.70;;;13.70;97.30;;;;;;5095735;28;20197;-80
2021/10/20 03:00:18;;;;;;;6.47;4.00;;;13.70;97.30;;;;;;5078551;28;20273;-79
2021/10/20 03:02:43;;;;;;;9.43;3.90;;;13.70;97.30;;;;;;5077410;28;20452;-80
2021/10/20 03:05:09;;;;;;;7.03;4.17;;;13.70;97.30;;;;;;5077673;28;20460;-80
2021/10/20 03:07:35;;;;;;;12.90;3.67;;;13.80;97.30;;;;;;5086117;28;20209;-79
2021/10/20 03:10:03;;;;;;;6.83;3.67;;;13.80;97.30;;;;;;5097428;28;20658;-79
2021/10/20 03:12:28;;;;;;;5.80;3.57;;;13.80;97.30;;;;;;5096853;28;20415;-79
2021/10/20 03:14:54;;;;;;;5.70;2.90;;;13.80;97.30;;;;;;5096752;28;20813;-79
2021/10/20 03:17:23;;;;;;;6.27;3.93;;;13.80;97.30;;;;;;5089565;28;20201;-80
2021/10/20 03:19:48;;;;;;;6.10;4.13;;;13.90;97.30;;;;;;5094669;28;20421;-79
2021/10/20 03:22:14;;;;;;;7.87;3.80;;;13.90;97.30;;;;;;5075873;28;20416;-80
2021/10/20 03:24:39;;;;;;;6.17;3.83;;;13.90;97.30;;;;;;5076051;28;20202;-78
2021/10/20 03:27:05;;;;;;;4.83;3.07;;;13.80;97.30;;;;;;5094750;28;20237;-80
2021/10/20 03:29:30;;;;;;;4.50;3.60;;;13.90;97.30;;;;;;5075186;28;20174;-78
2021/10/20 03:31:56;;;;;;;7.27;4.00;;;13.90;97.30;;;;;;5075908;28;20170;-81
2021/10/20 03:34:22;;;;;;;5.67;3.33;;;13.90;97.30;;;;;;5075808;28;20202;-80
2021/10/20 03:36:47;;;;;;;6.37;3.80;;;13.90;97.30;;;;;;5094790;28;20170;-79
2021/10/20 03:39:13;;;;;;;5.00;3.43;;;13.90;97.30;;;;;;5076927;28;20228;-80
2021/10/20 03:41:39;;;;;;;6.50;4.10;;;13.90;97.30;;;;;;5076445;28;20175;-79
2021/10/20 03:44:05;;;;;;;4.77;3.50;;;13.90;97.30;;;;;;5075706;28;20454;-79
2021/10/20 03:46:30;;;;;;;4.00;3.00;;;13.90;97.30;;;;;;5076297;28;20229;-78
2021/10/20 03:48:56;;;;;;;7.00;3.30;;;13.90;97.30;;;;;;5075576;28;20699;-79
2021/10/20 03:51:22;;;;;;;6.10;3.47;;;13.90;97.30;;;;;;5094901;28;20178;-81
2021/10/20 03:53:47;;;;;;;4.50;2.97;;;13.90;97.30;;;;;;5082843;28;20638;-80
2021/10/20 03:56:13;;;;;;;6.00;3.53;;;13.80;97.30;;;;;;5085148;28;20205;-80
2021/10/20 03:58:38;;;;;;;6.27;3.40;;;13.80;97.30;;;;;;5091697;28;20212;-80
2021/10/20 04:01:04;;;;;;;4.07;3.57;;;13.70;97.30;;;;;;5103902;28;20646;-79
2021/10/20 04:03:29;;;;;;;5.43;3.57;;;13.70;97.30;;;;;;5124164;28;20177;-79
2021/10/20 04:05:55;;;;;;;4.30;3.40;;;13.70;97.30;;;;;;5095891;28;20238;-79
2021/10/20 04:08:21;;;;;;;6.90;4.13;;;13.60;97.30;;;;;;5108148;28;20181;-80
2021/10/20 04:10:47;;;;;;;5.73;3.37;;;13.50;97.30;;;;;;5105070;28;20178;-80
2021/10/20 04:13:13;;;;;;;6.83;2.97;;;13.50;97.30;;;;;;5103464;28;20841;-79
2021/10/20 04:15:38;;;;;;;7.10;3.63;;;13.40;97.30;;;;;;5122381;28;20189;-80
2021/10/20 04:18:04;;;;;;;6.20;3.60;;;13.30;97.30;;;;;;5122723;28;20173;-81
2021/10/20 04:20:30;;;;;;;5.20;3.50;;;13.30;97.30;;;;;;5097066;28;20189;-80
2021/10/20 04:22:55;;;;;;;6.07;3.30;;;13.30;97.30;;;;;;5084659;28;20170;-80
2021/10/20 04:25:21;;;;;;;4.90;3.20;;;13.30;97.30;;;;;;5084493;28;20234;-80
2021/10/20 04:27:50;;;;;;;5.13;3.60;;;13.20;97.30;;;;;;5104196;28;20172;-80
2021/10/20 04:30:17;;;;;;;12.47;3.67;;;13.20;97.30;;;;;;5086094;28;20413;-80
2021/10/20 04:32:42;;;;;;;6.50;3.00;;;13.10;97.30;;;;;;5084546;28;20415;-81
2021/10/20 04:35:09;;;;;;;5.03;3.17;;;13.10;97.30;;;;;;5100225;28;20424;-82
2021/10/20 04:37:36;;;;;;;4.93;2.93;;;13.10;97.30;;;;;;5079120;28;20167;-82
2021/10/20 04:40:04;;;;;;;6.97;3.40;;;13.10;97.30;;;;;;5078491;28;20417;-81
2021/10/20 04:42:30;;;;;;;4.47;2.90;;;13.10;97.30;;;;;;5078474;28;20462;-81
2021/10/20 04:44:57;;;;;;;5.20;3.30;;;13.10;97.30;;;;;;5078053;28;20455;-82
2021/10/20 04:47:23;;;;;;;7.40;3.50;;;13.10;97.30;;;;;;5077453;28;20650;-82
2021/10/20 04:49:49;;;;;;;4.90;3.57;;;13.10;97.30;;;;;;5095422;28;20431;-82
2021/10/20 04:52:16;;;;;;;5.30;3.30;;;13.10;97.30;;;;;;5076945;28;20464;-82
2021/10/20 04:54:42;;;;;;;6.63;3.77;;;13.10;97.30;;;;;;5077172;28;20457;-82
2021/10/20 04:57:08;;;;;;;5.90;3.77;;;13.10;97.30;;;;;;5076506;28;20409;-82
2021/10/20 04:59:34;;;;;;;7.80;3.80;;;13.10;97.30;;;;;;5075775;28;20198;-81
2021/10/20 05:02:01;;;;;;;6.67;3.63;;;13.10;97.30;;;;;;5076938;28;20409;-81
2021/10/20 05:04:27;;;;;;;6.90;3.50;;;13.10;97.30;;;;;;5076655;28;20942;-83
2021/10/20 05:06:53;;;;;;;6.00;3.20;;;13.10;97.30;;;;;;5079659;28;20550;-82
2021/10/20 05:09:18;;;;;;;5.07;3.33;;;13.20;97.30;;;;;;5098661;28;20176;-82
2021/10/20 05:11:44;;;;;;;6.20;3.50;;;13.10;97.30;;;;;;5097362;28;20174;-82
2021/10/20 05:14:10;;;;;;;6.57;3.57;;;13.10;97.30;;;;;;5116340;28;20190;-82
2021/10/20 05:16:35;;;;;;;4.93;3.27;;;13.10;97.30;;;;;;5098114;28;20415;-81
2021/10/20 05:19:01;;;;;;;7.10;3.60;;;13.10;97.30;;;;;;5098269;28;20663;-81
2021/10/20 05:21:27;;;;;;;5.90;3.20;;;13.10;97.30;;;;;;5097835;28;20189;-81
2021/10/20 05:23:52;;;;;;;6.40;3.27;;;13.10;97.30;;;;;;5096245;28;20201;-81
2021/10/20 05:26:18;;;;;;;4.20;2.90;;;13.10;97.30;;;;;;5096879;28;20213;-81
2021/10/20 05:28:44;;;;;;;6.53;3.30;;;13.10;97.30;;;;;;5096865;28;20174;-81
2021/10/20 05:31:10;;;;;;;4.40;3.13;;;13.10;97.30;;;;;;5097278;28;20419;-81
2021/10/20 05:33:36;;;;;;;10.03;3.77;;;13.10;97.30;;;;;;5097329;28;20207;-82
2021/10/20 05:36:01;;;;;;;5.80;3.10;;;13.10;97.30;;;;;;5096950;28;20181;-81
2021/10/20 05:38:27;;;;;;;3.43;2.47;;;13.10;97.30;;;;;;5115303;28;20217;-80
2021/10/20 05:40:52;;;;;;;4.70;3.27;;;13.10;97.30;;;;;;5097068;28;20244;-80
2021/10/20 05:43:19;;;;;;;6.03;3.50;;;13.00;97.30;;;;;;5097472;28;20170;-81
2021/10/20 05:45:46;;;;;;;6.43;3.50;;;13.10;97.30;;;;;;5096809;28;20210;-80
2021/10/20 05:48:12;;;;;;;4.43;3.27;;;13.10;97.30;;;;;;5097363;28;21009;-81
2021/10/20 05:50:37;;;;;;;3.80;3.00;;;13.10;97.30;;;;;;5097687;28;20411;-81
2021/10/20 05:53:03;;;;;;;12.17;2.93;;;13.20;97.30;;;;;;5098357;28;20209;-81
2021/10/20 05:55:28;;;;;;;6.37;3.00;;;13.20;97.30;;;;;;5097973;28;20681;-81
2021/10/20 05:57:54;;;;;;;5.93;3.17;;;13.30;97.30;;;;;;5097789;28;20181;-81
2021/10/20 06:00:20;;;;;;;3.90;2.83;;;13.30;97.30;;;;;;5081614;28;20171;-81
2021/10/20 06:02:45;;;;;;;4.23;2.80;;;13.40;97.30;;;;;;5078218;28;20710;-80
2021/10/20 06:05:11;;;;;;;6.43;3.63;;;13.40;97.30;;;;;;5078350;28;20684;-81
2021/10/20 06:07:44;;;;;;;8.70;3.10;;;13.40;97.30;;;;;;5104788;28;20198;-81
2021/10/20 06:10:11;;;;;;;3.53;2.60;;;13.50;97.30;;;;;;5098445;28;20170;-82
2021/10/20 06:12:38;;;;;;;4.77;3.30;;;13.50;97.30;;;;;;5097409;28;20503;-82
2021/10/20 06:15:06;;;;;;;3.63;2.70;;;13.60;97.30;;;;;;5115264;28;20936;-81
2021/10/20 06:17:32;;;;;;;4.73;3.30;;;13.70;97.30;;;;;;5097697;28;20823;-82
2021/10/20 06:19:57;;;;;;;3.03;2.73;;;13.70;97.30;;;;;;5115342;28;20407;-81
2021/10/20 06:22:23;;;;;;;5.03;3.07;;;13.80;97.30;;;;;;5097924;28;20507;-79
2021/10/20 06:24:48;;;;;;;6.00;3.00;;;13.90;97.30;;;;;;5100173;28;20198;-80
2021/10/20 06:27:14;;;;;;;6.07;2.90;;;13.90;97.30;;;;;;5101278;28;20197;-80
2021/10/20 06:29:39;;;;;;;4.13;2.53;;;14.00;97.30;;;;;;5102579;28;20186;-81
2021/10/20 06:32:05;;;;;;;4.93;3.00;;;14.00;97.30;;;;;;5100582;28;20642;-80
2021/10/20 06:34:31;;;;;;;4.37;2.53;;;14.00;97.30;;;;;;5101236;28;20694;-82
2021/10/20 06:36:57;;;;;;;5.33;3.37;;;14.00;97.30;;;;;;5101633;28;20665;-79
2021/10/20 06:39:24;;;;;;;4.47;2.40;;;14.10;97.30;;;;;;5120546;28;20182;-79
2021/10/20 06:41:50;;;;;;;5.33;3.20;;;14.10;97.30;;;;;;5103016;28;20178;-80
2021/10/20 06:44:17;;;;;;;4.30;2.90;;;14.20;97.30;;;;;;5102186;28;20427;-80
2021/10/20 06:46:43;;;;;;;5.37;3.07;;;14.20;97.30;;;;;;5102294;28;20455;-80
2021/10/20 06:49:09;;;;;;;7.57;3.50;;;14.30;97.30;;;;;;5103868;28;20423;-80
2021/10/20 06:51:35;;;;;;;5.00;2.87;;;14.40;97.30;;;;;;5102104;28;20917;-80
2021/10/20 06:54:01;;;;;;;5.90;2.80;;;14.40;97.30;;;;;;5103134;28;20197;-79
2021/10/20 06:56:26;;;;;;;4.87;2.57;;;14.40;97.30;;;;;;5101759;28;20736;-79
2021/10/20 06:58:52;;;;;;;6.17;2.97;;;14.40;97.30;;;;;;5104140;28;20178;-82
2021/10/20 07:01:18;;;;;;;4.50;2.80;;;14.40;97.30;;;;;;5121631;28;20177;-79
2021/10/20 07:03:44;;;;;;;5.13;2.83;;;14.50;97.30;;;;;;5104629;28;20174;-80
2021/10/20 07:06:10;;;;;;;7.53;3.03;;;14.60;97.30;;;;;;5103347;28;20213;-80
2021/10/20 07:08:36;;;;;;;14.23;3.20;;;14.60;97.30;;;;;;5103628;28;20400;-80
2021/10/20 07:11:02;;;;;;;4.07;2.60;;;14.70;97.30;;;;;;5104233;28;20929;-80
2021/10/20 07:13:27;;;;;;;5.00;2.80;;;14.80;97.30;;;;;;5103965;28;20170;-80
2021/10/20 07:15:53;;;;;;;4.00;3.03;;;14.90;97.30;;;;;;5103893;28;20726;-80
2021/10/20 07:18:19;;;;;;;6.00;3.30;;;15.00;97.30;;;;;;5104436;28;20185;-79
2021/10/20 07:20:45;;;;;;;4.93;2.40;;;15.10;97.30;;;;;;5123172;28;20415;-80
2021/10/20 07:23:11;;;;;;;3.40;2.63;;;15.30;97.30;;;;;;5103849;28;20434;-80
2021/10/20 07:25:36;;;;;;;5.23;2.90;;;15.40;97.30;;;;;;5102828;28;20200;-78
2021/10/20 07:28:02;;;;;;;4.57;2.83;;;15.40;97.20;;;;;;5104354;28;20235;-80
2021/10/20 07:30:28;;;;;;;6.50;2.97;;;15.30;97.30;;;;;;5100956;28;20170;-81
2021/10/20 07:32:53;;;;;;;4.47;2.63;;;15.30;97.30;;;;;;5116537;28;20170;-80
2021/10/20 07:35:19;;;;;;;7.83;2.97;;;15.20;97.30;;;;;;5098215;28;20194;-80
2021/10/20 07:37:45;;;;;;;6.70;3.30;;;15.20;97.30;;;;;;5100368;28;20201;-81
2021/10/20 07:40:12;;;;;;;3.30;2.50;;;15.20;97.30;;;;;;5117673;28;20761;-81
2021/10/20 07:42:39;;;;;;;4.80;3.03;;;15.20;97.30;;;;;;5098826;28;20182;-80
2021/10/20 07:45:08;;;;;;;5.00;3.50;;;15.20;97.30;;;;;;5097616;28;20451;-80
2021/10/20 07:47:34;;;;;;;9.07;3.10;;;15.20;97.30;;;;;;5097477;28;20482;-80
2021/10/20 07:49:59;;;;;;;9.20;3.70;;;15.30;97.30;;;;;;5097816;28;20407;-82
2021/10/20 07:52:28;;;;;;;6.00;2.90;;;15.30;97.30;;;;;;5097817;28;20463;-80
2021/10/20 07:54:54;;;;;;;5.73;3.00;;;15.40;97.30;;;;;;5116118;28;20197;-81
2021/10/20 07:57:20;;;;;;;3.10;2.67;;;15.60;97.30;;;;;;5098189;28;20415;-81
2021/10/20 07:59:46;;;;;;;3.90;2.80;;;15.80;97.30;;;;;;5098779;28;20427;-81
2021/10/20 08:02:13;;;;;;;6.93;3.20;;;15.80;96.40;;;;;;5118171;28;20911;-81
2021/10/20 08:04:39;;;;;;;8.37;3.63;;;15.90;96.40;;;;;;5099425;28;20428;-81
2021/10/20 08:07:04;;;;;;;5.40;2.83;;;16.00;96.10;;;;;;5094674;28;20802;-80
2021/10/20 08:09:30;;;;;;;6.57;3.57;;;16.10;95.70;;;;;;5078177;28;20182;-81
2021/10/20 08:11:55;;;;;;;4.63;2.70;;;16.20;95.00;;;;;;5078883;28;20176;-81
2021/10/20 08:14:21;;;;;;;9.17;3.23;;;16.30;95.90;;;;;;5080233;28;20214;-82
2021/10/20 08:16:46;;;;;;;5.07;3.47;;;16.30;95.10;;;;;;5079492;28;20178;-81
2021/10/20 08:19:12;;;;;;;5.70;3.20;;;16.30;94.60;;;;;;5079832;28;20182;-80
2021/10/20 08:21:38;;;;;;;4.27;2.70;;;16.30;95.30;;;;;;5079931;28;20175;-81
2021/10/20 08:24:03;;;;;;;8.57;2.80;;;16.20;94.70;;;;;;5097991;28;20194;-81
2021/10/20 08:26:29;;;;;;;5.00;2.97;;;16.20;94.30;;;;;;5078307;28;20755;-81
2021/10/20 08:28:55;;;;;;;6.70;4.20;;;16.20;93.80;;;;;;5078566;28;20171;-80
2021/10/20 08:31:20;;;;;;;5.60;3.17;;;16.20;93.70;;;;;;5077191;28;20416;-80
2021/10/20 08:33:46;;;;;;;4.50;2.83;;;16.20;93.90;;;;;;5078087;28;20188;-81
2021/10/20 08:36:12;;;;;;;5.63;2.77;;;16.30;93.80;;;;;;5097121;28;20520;-81
2021/10/20 08:38:38;;;;;;;5.10;3.13;;;16.30;93.80;;;;;;5079486;28;20174;-79
2021/10/20 08:41:04;;;;;;;10.40;2.60;;;16.40;93.90;;;;;;5080919;28;20416;-80
2021/10/20 08:43:30;;;;;;;3.20;2.70;;;16.60;93.70;;;;;;5080428;28;20925;-82
2021/10/20 08:45:55;;;;;;;8.23;2.80;;;16.60;93.00;;;;;;5097559;28;20286;-81
2021/10/20 08:48:22;;;;;;;4.63;2.50;;;16.70;92.60;;;;;;5079707;28;20646;-81
2021/10/20 08:50:53;;;;;;;9.67;3.50;;;16.80;92.20;;;;;;5080642;28;20198;-80
2021/10/20 08:53:19;;;;;;;4.80;3.00;;;16.90;92.00;;;;;;5080187;28;20472;-82
2021/10/20 08:55:46;;;;;;;5.77;2.97;;;17.00;92.10;;;;;;5098319;28;20714;-80
2021/10/20 08:58:12;;;;;;;5.23;3.20;;;17.10;91.80;;;;;;5079835;28;20443;-80
2021/10/20 09:00:38;;;;;;;4.53;3.03;;;17.20;91.50;;;;;;5098037;28;20413;-81
2021/10/20 09:03:03;;;;;;;5.60;2.90;;;17.20;91.30;;;;;;5080023;28;20181;-80
2021/10/20 09:05:29;;;;;;;3.70;2.90;;;17.30;91.10;;;;;;5079422;28;20292;-81
2021/10/20 09:07:56;;;;;;;6.87;3.13;;;17.30;91.40;;;;;;5090649;28;20190;-81
2021/10/20 09:10:30;;;;;;;4.60;2.90;;;17.40;92.20;;;;;;5100412;28;20235;-80
2021/10/20 09:12:56;;;;;;;4.37;2.53;;;17.40;91.10;;;;;;5100433;28;20411;-82
2021/10/20 09:15:23;;;;;;;4.27;2.87;;;17.50;90.90;;;;;;5099020;28;20442;-80
2021/10/20 09:18:03;;;;;;;6.60;3.10;;;17.50;91.10;;;;;;5104193;28;20411;-80
2021/10/20 09:20:45;;;;;;;5.60;2.87;;;17.50;91.00;;;;;;5104558;28;20498;-81
2021/10/20 09:23:19;;;;;;;3.40;2.60;;;17.60;91.90;;;;;;5103532;28;20414;-81
2021/10/20 09:25:56;;;;;;;4.50;2.70;;;17.70;91.20;;;;;;5103519;28;20436;-79
2021/10/20 09:28:33;;;;;;;3.43;2.63;;;17.70;91.10;;;;;;5101376;28;20445;-79
2021/10/20 09:31:04;;;;;;;5.77;2.90;;;17.80;90.70;;;;;;5102230;28;20418;-80
2021/10/20 09:33:30;;;;;;;5.50;3.13;;;17.80;90.60;;;;;;5103066;28;20408;-80
2021/10/20 09:36:02;;;;;;;4.13;3.10;;;17.80;90.60;;;;;;5101986;28;20855;-81
2021/10/20 09:38:35;;;;;;;4.60;2.63;;;17.80;90.90;;;;;;5101352;28;20415;-80
2021/10/20 09:41:06;;;;;;;4.77;3.10;;;17.70;90.30;;;;;;5103138;28;20990;-80
2021/10/20 09:43:33;;;;;;;4.87;3.23;;;17.80;90.30;;;;;;5102795;28;20971;-79
2021/10/20 09:46:02;;;;;;;9.13;2.60;;;17.90;90.60;;;;;;5104087;28;20542;-80
2021/10/20 09:48:27;;;;;;;3.73;2.60;;;17.90;90.90;;;;;;5098349;28;20414;-82
2021/10/20 09:51:03;;;;;;;5.83;3.30;;;18.00;90.60;;;;;;5093079;28;20480;-80
2021/10/20 09:53:31;;;;;;;7.13;2.73;;;18.10;89.70;;;;;;5077031;28;20418;-81
2021/10/20 09:55:59;;;;;;;5.97;2.80;;;18.20;89.50;;;;;;5077011;28;20926;-82
2021/10/20 09:58:25;;;;;;;4.57;3.23;;;18.10;88.70;;;;;;5078557;28;20412;-82
2021/10/20 10:00:54;;;;;;;4.50;2.90;;;18.10;88.90;;;;;;5083737;28;20438;-82
2021/10/20 10:03:19;;;;;;;5.27;3.13;;;18.20;89.30;;;;;;5082584;28;20508;-81
2021/10/20 10:05:46;;;;;;;5.30;3.20;;;18.20;88.70;;;;;;5083181;28;21118;-81
2021/10/20 10:08:12;;;;;;;4.50;3.00;;;18.20;89.00;;;;;;5083535;28;20170;-78
2021/10/20 10:10:38;;;;;;;5.40;3.37;;;18.30;88.50;;;;;;5103252;28;20412;-80
2021/10/20 10:13:10;;;;;;;4.80;2.97;;;18.30;88.50;;;;;;5083995;28;20218;-79
2021/10/20 10:15:39;;;;;;;8.30;3.23;;;18.40;88.80;;;;;;5080397;28;20441;-78
2021/10/20 10:18:06;;;;;;;5.80;2.93;;;18.50;88.20;;;;;;5080001;28;20487;-79
2021/10/20 10:20:41;;;;;;;4.77;2.80;;;18.60;88.40;;;;;;5081707;28;20427;-78
2021/10/20 10:23:21;;;;;;;3.90;2.63;;;18.80;88.30;;;;;;5083013;28;20408;-80
2021/10/20 10:26:00;;;;;;;4.57;3.40;;;18.90;88.40;;;;;;5081531;28;22407;-78
2021/10/20 10:28:27;;;;;;;3.87;2.90;;;18.90;88.80;;;;;;5079171;28;20427;-79
2021/10/20 10:30:54;;;;;;;6.90;3.00;;;19.10;88.80;;;;;;5079711;28;20409;-79
2021/10/20 10:33:25;;;;;;;4.27;3.20;;;19.40;88.10;;;;;;5079054;28;20438;-78
2021/10/20 10:36:14;;;;;;;5.23;2.70;;;19.50;88.50;;;;;;5079570;28;20617;-78
2021/10/20 10:38:46;;;;;;;5.13;3.30;;;19.70;87.30;;;;;;5078087;28;20409;-78
2021/10/20 10:41:22;;;;;;;8.47;3.77;;;19.70;87.10;;;;;;5077481;28;20420;-78
2021/10/20 10:46:33;;;;;;;4.80;3.07;;;19.90;87.80;;;;;;5094472;28;20976;-78
2021/10/20 10:49:00;;;;;;;4.27;2.80;;;20.10;88.80;;;;;;5076631;28;20423;-78
2021/10/20 10:51:26;;;;;;;5.90;3.20;;;20.20;86.70;;;;;;5095023;28;20512;-77
2021/10/20 10:53:53;;;;;;;4.63;2.70;;;20.20;86.40;;;;;;5076236;28;20621;-78
2021/10/20 10:56:20;;;;;;;5.00;3.10;;;20.10;87.10;;;;;;5077906;28;20235;-77
2021/10/20 10:59:06;;;;;;;4.00;3.20;;;20.20;87.20;;;;;;5079478;28;20771;-80
2021/10/20 11:01:43;;;;;;;6.90;3.00;;;20.40;86.90;;;;;;5077938;28;20417;-78
2021/10/20 11:04:18;;;;;;;7.00;3.17;;;20.40;86.00;;;;;;5095891;28;20791;-78
2021/10/20 11:06:44;;;;;;;12.80;3.00;;;20.50;86.80;;;;;;5080166;28;20464;-80
2021/10/20 11:09:10;;;;;;;3.90;3.03;;;20.40;85.50;;;;;;5098977;28;20412;-78
2021/10/20 11:11:36;;;;;;;5.20;2.97;;;20.40;85.60;;;;;;5100427;28;20500;-82
2021/10/20 11:14:02;;;;;;;5.30;3.90;;;20.40;86.00;;;;;;5098307;28;20436;-81
2021/10/20 11:16:29;;;;;;;6.80;3.03;;;20.50;86.40;;;;;;5097295;28;20479;-81
2021/10/20 11:18:54;;;;;;;5.80;2.47;;;20.60;85.60;;;;;;5100269;28;20447;-82
2021/10/20 11:21:21;;;;;;;3.90;2.47;;;20.70;85.90;;;;;;5100652;28;20412;-81
2021/10/20 11:23:47;;;;;;;4.87;2.97;;;20.80;84.60;;;;;;5099949;28;20188;-84
2021/10/20 11:26:14;;;;;;;6.30;2.60;;;20.90;85.10;;;;;;5100479;28;20455;-83
2021/10/20 11:28:41;;;;;;;13.00;2.80;;;20.90;83.40;;;;;;5100043;28;20477;-81
2021/10/20 11:31:10;;;;;;;8.23;4.27;;;20.90;83.70;;;;;;5117841;28;20407;-80
2021/10/20 11:33:36;;;;;;;4.17;2.67;;;20.90;83.60;;;;;;5100192;28;20419;-80
2021/10/20 11:36:01;;;;;;;7.87;2.83;;;20.90;84.00;;;;;;5099062;28;20423;-80
2021/10/20 11:38:34;;;;;;;5.23;2.63;;;20.90;83.50;;;;;;5100029;28;20430;-83
2021/10/20 11:41:00;;;;;;;5.07;2.90;;;20.90;83.30;;;;;;5100421;28;20178;-82
2021/10/20 11:43:35;;;;;;;4.90;2.73;;;20.90;83.70;;;;;;5095330;28;20472;-81
2021/10/20 11:46:02;;;;;;;3.20;2.73;;;20.90;83.80;;;;;;5099203;28;20229;-82
2021/10/20 11:48:27;;;;;;;4.07;2.67;;;20.90;84.00;;;;;;5100484;28;20511;-80
2021/10/20 11:50:55;;;;;;;4.67;2.60;;;20.90;83.70;;;;;;5099279;28;20443;-80
2021/10/20 11:53:22;;;;;;;6.53;3.00;;;20.80;83.10;;;;;;5100343;28;20229;-80
2021/10/20 11:55:50;;;;;;;4.00;2.70;;;20.70;83.40;;;;;;5093614;28;20456;-80
2021/10/20 11:58:25;;;;;;;3.73;2.53;;;20.70;83.30;;;;;;5070800;28;20417;-80
2021/10/20 12:00:57;;;;;;;4.83;2.63;;;20.60;83.40;;;;;;5081586;28;20405;-78
2021/10/20 12:03:42;;;;;;;7.67;3.17;;;20.60;83.20;;;;;;5082392;28;20411;-81
2021/10/20 12:06:11;;;;;;;5.00;2.93;;;20.60;84.10;;;;;;5084037;28;20455;-82
2021/10/20 12:08:40;;;;;;;4.87;3.10;;;20.60;84.60;;;;;;5079484;28;20416;-82
2021/10/20 12:11:06;;;;;;;7.43;3.00;;;20.60;84.60;;;;;;5078490;28;20417;-82
2021/10/20 12:13:36;;;;;;;4.30;2.53;;;20.60;85.10;;;;;;5078717;28;20411;-82
2021/10/20 12:16:02;;;;;;;3.87;3.10;;;20.70;85.60;;;;;;5079056;28;20525;-80
2021/10/20 12:18:30;;;;;;;4.63;2.97;;;20.70;84.90;;;;;;5078768;28;20440;-82
2021/10/20 12:20:58;;;;;;;4.43;3.40;;;20.70;85.10;;;;;;5078497;28;20429;-81
2021/10/20 12:23:33;;;;;;;3.53;3.00;;;20.60;85.60;;;;;;5079174;28;20412;-81
2021/10/20 12:26:00;;;;;;;6.53;3.53;;;20.50;86.20;;;;;;5097009;28;20459;-81
2021/10/20 12:28:26;;;;;;;5.37;3.33;;;20.40;86.80;;;;;;5079522;28;20423;-81
2021/10/20 12:30:53;;;;;;;4.57;2.80;;;20.30;86.50;;;;;;5079749;28;20875;-82
2021/10/20 12:33:21;;;;;;;4.40;3.20;;;20.20;86.70;;;;;;5078420;28;20413;-81
2021/10/20 12:35:49;;;;;;;5.30;2.90;;;20.10;86.90;;;;;;5078070;28;20468;-82
2021/10/20 12:38:16;;;;;;;5.83;3.13;;;20.00;86.70;;;;;;5083034;28;20408;-81
2021/10/20 12:40:43;;;;;;;4.10;3.33;;;20.00;87.10;;;;;;5101936;28;20421;-80
2021/10/20 12:43:11;;;;;;;5.00;3.33;;;20.10;86.60;;;;;;5077452;28;20516;-82
2021/10/20 12:45:37;;;;;;;4.70;3.10;;;20.30;86.10;;;;;;5098279;28;20512;-80